sensor_id;sensor_type;location;lat;lon;timestamp;temperature;humidity
26270;DHT22;15937;50.612;6.656;2023-03-24T00:00:09;12.20;99.90
26270;DHT22;15937;50.612;6.656;2023-03-24T00:04:12;12.20;99.90
26270;DHT22;15937;50.612;6.656;2023-03-24T00:08:14;12.10;99.90
26270;DHT22;15937;50.612;6.656;2023-03-24T00:12:17;12.20;99.90
26270;DHT22;15937;50.612;6.656;2023-03-24T00:16:19;12.30;99.90
26270;DHT22;15937;50.612;6.656;2023-03-24T00:20:23;12.40;99.90
26270;DHT22;15937;50.612;6.656;2023-03-24T00:24:26;12.30;99.90
26270;DHT22;15937;50.612;6.656;2023-03-24T00:28:29;12.30;99.90
26270;DHT22;15937;50.612;6.656;2023-03-24T00:32:32;12.30;99.90
26270;DHT22;15937;50.612;6.656;2023-03-24T00:36:34;12.30;99.90
26270;DHT22;15937;50.612;6.656;2023-03-24T00:40:35;12.40;99.90
26270;DHT22;15937;50.612;6.656;2023-03-24T00:44:37;12.30;99.90
26270;DHT22;15937;50.612;6.656;2023-03-24T00:48:39;12.30;99.90
26270;DHT22;15937;50.612;6.656;2023-03-24T00:52:42;12.30;99.90
26270;DHT22;15937;50.612;6.656;2023-03-24T00:56:48;12.20;99.90
26270;DHT22;15937;50.612;6.656;2023-03-24T01:00:54;12.30;99.90
26270;DHT22;15937;50.612;6.656;2023-03-24T01:04:57;12.40;99.90
26270;DHT22;15937;50.612;6.656;2023-03-24T01:09:03;12.40;99.90
26270;DHT22;15937;50.612;6.656;2023-03-24T01:13:06;12.40;99.90
26270;DHT22;15937;50.612;6.656;2023-03-24T01:17:07;12.40;99.90
26270;DHT22;15937;50.612;6.656;2023-03-24T01:21:09;12.50;99.90
26270;DHT22;15937;50.612;6.656;2023-03-24T01:25:21;12.50;99.90
26270;DHT22;15937;50.612;6.656;2023-03-24T01:29:23;12.60;99.90
26270;DHT22;15937;50.612;6.656;2023-03-24T01:33:25;12.60;99.90
26270;DHT22;15937;50.612;6.656;2023-03-24T01:37:27;12.50;99.90
26270;DHT22;15937;50.612;6.656;2023-03-24T01:41:31;12.40;99.90
26270;DHT22;15937;50.612;6.656;2023-03-24T01:49:46;12.50;99.90
26270;DHT22;15937;50.612;6.656;2023-03-24T01:54:14;12.50;99.90
26270;DHT22;15937;50.612;6.656;2023-03-24T01:58:13;12.50;99.90
26270;DHT22;15937;50.612;6.656;2023-03-24T02:02:15;12.60;99.90
26270;DHT22;15937;50.612;6.656;2023-03-24T02:06:17;12.50;99.90
26270;DHT22;15937;50.612;6.656;2023-03-24T02:10:19;12.50;99.90
26270;DHT22;15937;50.612;6.656;2023-03-24T02:14:22;12.50;99.90
26270;DHT22;15937;50.612;6.656;2023-03-24T02:18:36;12.60;99.90
26270;DHT22;15937;50.612;6.656;2023-03-24T02:27:08;12.60;99.90
26270;DHT22;15937;50.612;6.656;2023-03-24T02:35:30;12.60;99.90
26270;DHT22;15937;50.612;6.656;2023-03-24T02:43:51;12.50;99.90
26270;DHT22;15937;50.612;6.656;2023-03-24T02:56:24;12.50;99.90
26270;DHT22;15937;50.612;6.656;2023-03-24T03:00:31;12.50;99.90
26270;DHT22;15937;50.612;6.656;2023-03-24T03:04:42;12.60;99.90
26270;DHT22;15937;50.612;6.656;2023-03-24T03:08:50;12.60;99.90
26270;DHT22;15937;50.612;6.656;2023-03-24T03:12:53;12.50;99.90
26270;DHT22;15937;50.612;6.656;2023-03-24T03:17:06;12.60;99.90
26270;DHT22;15937;50.612;6.656;2023-03-24T03:21:11;12.50;99.90
26270;DHT22;15937;50.612;6.656;2023-03-24T03:25:13;12.50;99.90
26270;DHT22;15937;50.612;6.656;2023-03-24T03:29:17;12.50;99.90
26270;DHT22;15937;50.612;6.656;2023-03-24T03:33:21;12.60;99.90
26270;DHT22;15937;50.612;6.656;2023-03-24T03:41:36;12.60;99.90
26270;DHT22;15937;50.612;6.656;2023-03-24T03:45:39;12.70;99.90
26270;DHT22;15937;50.612;6.656;2023-03-24T03:49:41;12.70;99.90
26270;DHT22;15937;50.612;6.656;2023-03-24T03:57:47;12.60;99.90
26270;DHT22;15937;50.612;6.656;2023-03-24T04:01:49;12.70;99.90
26270;DHT22;15937;50.612;6.656;2023-03-24T04:19:37;12.70;99.90
26270;DHT22;15937;50.612;6.656;2023-03-24T04:23:07;12.70;99.90
26270;DHT22;15937;50.612;6.656;2023-03-24T04:31:42;12.80;99.90
26270;DHT22;15937;50.612;6.656;2023-03-24T04:35:46;12.80;99.90
26270;DHT22;15937;50.612;6.656;2023-03-24T04:39:49;12.80;99.90
26270;DHT22;15937;50.612;6.656;2023-03-24T04:43:54;12.70;99.90
26270;DHT22;15937;50.612;6.656;2023-03-24T04:47:59;12.70;99.90
26270;DHT22;15937;50.612;6.656;2023-03-24T04:52:01;12.70;99.90
26270;DHT22;15937;50.612;6.656;2023-03-24T05:00:05;12.70;99.90
26270;DHT22;15937;50.612;6.656;2023-03-24T05:04:08;12.70;99.90
26270;DHT22;15937;50.612;6.656;2023-03-24T05:08:10;12.70;99.90
26270;DHT22;15937;50.612;6.656;2023-03-24T05:12:12;12.70;99.90
26270;DHT22;15937;50.612;6.656;2023-03-24T05:16:14;12.50;99.90
26270;DHT22;15937;50.612;6.656;2023-03-24T05:20:16;11.90;99.90
26270;DHT22;15937;50.612;6.656;2023-03-24T05:24:18;11.60;99.90
26270;DHT22;15937;50.612;6.656;2023-03-24T05:28:19;11.50;99.90
26270;DHT22;15937;50.612;6.656;2023-03-24T05:32:21;11.50;99.90
26270;DHT22;15937;50.612;6.656;2023-03-24T05:36:23;11.30;99.90
26270;DHT22;15937;50.612;6.656;2023-03-24T05:40:24;11.30;99.90
26270;DHT22;15937;50.612;6.656;2023-03-24T05:44:26;11.30;99.90
26270;DHT22;15937;50.612;6.656;2023-03-24T05:48:28;11.20;99.90
26270;DHT22;15937;50.612;6.656;2023-03-24T05:52:29;11.30;99.90
26270;DHT22;15937;50.612;6.656;2023-03-24T05:56:32;11.20;99.90
26270;DHT22;15937;50.612;6.656;2023-03-24T06:00:34;11.10;99.90
26270;DHT22;15937;50.612;6.656;2023-03-24T06:04:35;11.10;99.90
26270;DHT22;15937;50.612;6.656;2023-03-24T06:08:37;11.10;99.90
26270;DHT22;15937;50.612;6.656;2023-03-24T06:12:39;11.10;99.90
26270;DHT22;15937;50.612;6.656;2023-03-24T06:16:41;11.00;99.90
26270;DHT22;15937;50.612;6.656;2023-03-24T06:20:45;10.90;99.90
26270;DHT22;15937;50.612;6.656;2023-03-24T06:24:51;11.00;99.90
26270;DHT22;15937;50.612;6.656;2023-03-24T06:28:54;10.90;99.90
26270;DHT22;15937;50.612;6.656;2023-03-24T06:32:56;11.00;99.90
26270;DHT22;15937;50.612;6.656;2023-03-24T06:37:04;11.00;99.90
26270;DHT22;15937;50.612;6.656;2023-03-24T06:41:06;10.90;99.90
26270;DHT22;15937;50.612;6.656;2023-03-24T06:45:08;10.90;99.90
26270;DHT22;15937;50.612;6.656;2023-03-24T06:49:10;10.90;99.90
26270;DHT22;15937;50.612;6.656;2023-03-24T06:53:12;10.80;99.90
26270;DHT22;15937;50.612;6.656;2023-03-24T06:57:13;10.80;99.90
26270;DHT22;15937;50.612;6.656;2023-03-24T07:01:15;10.90;99.90
26270;DHT22;15937;50.612;6.656;2023-03-24T07:05:17;10.80;99.90
26270;DHT22;15937;50.612;6.656;2023-03-24T07:09:19;10.80;99.90
26270;DHT22;15937;50.612;6.656;2023-03-24T07:13:21;10.70;99.90
26270;DHT22;15937;50.612;6.656;2023-03-24T07:17:23;10.70;99.90
26270;DHT22;15937;50.612;6.656;2023-03-24T07:21:25;10.70;99.90
26270;DHT22;15937;50.612;6.656;2023-03-24T07:25:27;10.60;99.90
26270;DHT22;15937;50.612;6.656;2023-03-24T07:29:29;10.50;99.90
26270;DHT22;15937;50.612;6.656;2023-03-24T07:33:31;10.70;99.90
26270;DHT22;15937;50.612;6.656;2023-03-24T07:37:33;10.60;99.90
26270;DHT22;15937;50.612;6.656;2023-03-24T07:41:34;10.70;99.90
26270;DHT22;15937;50.612;6.656;2023-03-24T07:45:36;10.70;99.90
26270;DHT22;15937;50.612;6.656;2023-03-24T07:49:38;10.60;99.90
26270;DHT22;15937;50.612;6.656;2023-03-24T07:53:39;10.70;99.90
26270;DHT22;15937;50.612;6.656;2023-03-24T07:57:42;10.70;99.90
26270;DHT22;15937;50.612;6.656;2023-03-24T08:01:46;10.70;99.90
26270;DHT22;15937;50.612;6.656;2023-03-24T08:05:55;10.80;99.90
26270;DHT22;15937;50.612;6.656;2023-03-24T08:09:56;10.90;99.90
26270;DHT22;15937;50.612;6.656;2023-03-24T08:13:58;10.90;99.90
26270;DHT22;15937;50.612;6.656;2023-03-24T08:18:00;11.10;99.90
26270;DHT22;15937;50.612;6.656;2023-03-24T08:22:01;11.30;99.90
26270;DHT22;15937;50.612;6.656;2023-03-24T08:26:04;11.60;99.90
26270;DHT22;15937;50.612;6.656;2023-03-24T08:30:10;12.00;99.90
26270;DHT22;15937;50.612;6.656;2023-03-24T08:34:14;11.80;99.90
26270;DHT22;15937;50.612;6.656;2023-03-24T08:38:16;11.70;99.90
26270;DHT22;15937;50.612;6.656;2023-03-24T08:42:19;11.70;99.90
26270;DHT22;15937;50.612;6.656;2023-03-24T08:46:21;12.00;99.90
26270;DHT22;15937;50.612;6.656;2023-03-24T08:50:23;12.00;99.90
26270;DHT22;15937;50.612;6.656;2023-03-24T08:54:26;12.20;99.90
26270;DHT22;15937;50.612;6.656;2023-03-24T08:58:28;12.10;99.90
26270;DHT22;15937;50.612;6.656;2023-03-24T09:02:29;12.20;99.90
26270;DHT22;15937;50.612;6.656;2023-03-24T09:06:31;12.20;99.90
26270;DHT22;15937;50.612;6.656;2023-03-24T09:10:35;12.30;99.90
26270;DHT22;15937;50.612;6.656;2023-03-24T09:14:36;12.50;99.90
26270;DHT22;15937;50.612;6.656;2023-03-24T09:18:38;12.30;99.90
26270;DHT22;15937;50.612;6.656;2023-03-24T09:22:41;12.50;99.90
26270;DHT22;15937;50.612;6.656;2023-03-24T09:26:44;12.60;99.90
26270;DHT22;15937;50.612;6.656;2023-03-24T09:30:46;12.80;99.90
26270;DHT22;15937;50.612;6.656;2023-03-24T09:34:49;13.20;99.90
26270;DHT22;15937;50.612;6.656;2023-03-24T09:38:51;13.20;99.90
26270;DHT22;15937;50.612;6.656;2023-03-24T09:42:54;13.30;99.90
26270;DHT22;15937;50.612;6.656;2023-03-24T09:51:27;13.10;98.40
26270;DHT22;15937;50.612;6.656;2023-03-24T09:55:29;13.00;98.40
26270;DHT22;15937;50.612;6.656;2023-03-24T09:59:34;13.30;98.30
26270;DHT22;15937;50.612;6.656;2023-03-24T10:03:36;13.40;98.10
26270;DHT22;15937;50.612;6.656;2023-03-24T10:07:39;13.60;98.00
26270;DHT22;15937;50.612;6.656;2023-03-24T10:15:58;13.40;96.80
26270;DHT22;15937;50.612;6.656;2023-03-24T10:20:14;13.50;96.50
26270;DHT22;15937;50.612;6.656;2023-03-24T10:24:28;13.60;94.90
26270;DHT22;15937;50.612;6.656;2023-03-24T10:28:33;13.90;94.80
26270;DHT22;15937;50.612;6.656;2023-03-24T10:32:37;14.00;94.40
26270;DHT22;15937;50.612;6.656;2023-03-24T10:36:39;14.00;93.80
26270;DHT22;15937;50.612;6.656;2023-03-24T10:40:41;14.10;92.60
26270;DHT22;15937;50.612;6.656;2023-03-24T10:44:44;13.90;90.90
26270;DHT22;15937;50.612;6.656;2023-03-24T10:48:48;14.00;90.90
26270;DHT22;15937;50.612;6.656;2023-03-24T10:52:50;14.30;91.80
26270;DHT22;15937;50.612;6.656;2023-03-24T11:00:58;14.50;90.80
26270;DHT22;15937;50.612;6.656;2023-03-24T11:05:02;14.30;90.20
26270;DHT22;15937;50.612;6.656;2023-03-24T11:09:20;14.70;91.70
26270;DHT22;15937;50.612;6.656;2023-03-24T11:17:24;14.40;91.50
26270;DHT22;15937;50.612;6.656;2023-03-24T11:21:27;14.10;91.90
26270;DHT22;15937;50.612;6.656;2023-03-24T11:25:30;13.80;92.40
26270;DHT22;15937;50.612;6.656;2023-03-24T11:29:37;14.40;92.40
26270;DHT22;15937;50.612;6.656;2023-03-24T11:33:41;13.70;92.90
26270;DHT22;15937;50.612;6.656;2023-03-24T11:37:44;13.90;93.10
26270;DHT22;15937;50.612;6.656;2023-03-24T11:46:04;14.80;92.90
26270;DHT22;15937;50.612;6.656;2023-03-24T11:54:13;15.40;90.10
26270;DHT22;15937;50.612;6.656;2023-03-24T11:58:18;15.10;88.20
26270;DHT22;15937;50.612;6.656;2023-03-24T12:23:41;14.50;90.00
26270;DHT22;15937;50.612;6.656;2023-03-24T12:36:11;14.60;86.80
26270;DHT22;15937;50.612;6.656;2023-03-24T12:48:55;15.50;86.40
26270;DHT22;15937;50.612;6.656;2023-03-24T12:57:11;15.80;81.80
26270;DHT22;15937;50.612;6.656;2023-03-24T13:01:22;16.00;84.30
26270;DHT22;15937;50.612;6.656;2023-03-24T13:05:31;15.40;83.80
26270;DHT22;15937;50.612;6.656;2023-03-24T13:09:40;15.50;86.80
26270;DHT22;15937;50.612;6.656;2023-03-24T13:13:44;15.30;88.00
26270;DHT22;15937;50.612;6.656;2023-03-24T13:17:56;15.20;91.00
26270;DHT22;15937;50.612;6.656;2023-03-24T13:22:02;15.60;90.20
26270;DHT22;15937;50.612;6.656;2023-03-24T13:30:16;15.80;86.10
26270;DHT22;15937;50.612;6.656;2023-03-24T13:34:23;15.70;85.20
26270;DHT22;15937;50.612;6.656;2023-03-24T13:38:34;15.70;88.40
26270;DHT22;15937;50.612;6.656;2023-03-24T13:42:56;15.70;89.30
26270;DHT22;15937;50.612;6.656;2023-03-24T13:47:07;15.70;87.60
26270;DHT22;15937;50.612;6.656;2023-03-24T13:55:27;15.80;87.30
26270;DHT22;15937;50.612;6.656;2023-03-24T14:03:38;15.50;84.60
26270;DHT22;15937;50.612;6.656;2023-03-24T14:07:45;15.40;84.30
26270;DHT22;15937;50.612;6.656;2023-03-24T14:20:33;16.50;88.10
26270;DHT22;15937;50.612;6.656;2023-03-24T14:24:35;16.10;87.30
26270;DHT22;15937;50.612;6.656;2023-03-24T14:28:41;16.40;86.10
26270;DHT22;15937;50.612;6.656;2023-03-24T14:32:45;15.50;87.80
26270;DHT22;15937;50.612;6.656;2023-03-24T14:36:52;15.50;88.60
26270;DHT22;15937;50.612;6.656;2023-03-24T14:40:59;15.40;89.30
26270;DHT22;15937;50.612;6.656;2023-03-24T14:45:34;15.80;90.40
26270;DHT22;15937;50.612;6.656;2023-03-24T14:49:28;15.70;91.00
26270;DHT22;15937;50.612;6.656;2023-03-24T14:53:30;15.50;92.50
26270;DHT22;15937;50.612;6.656;2023-03-24T14:57:43;15.10;93.80
26270;DHT22;15937;50.612;6.656;2023-03-24T15:01:44;15.10;94.80
26270;DHT22;15937;50.612;6.656;2023-03-24T15:05:49;14.90;94.50
26270;DHT22;15937;50.612;6.656;2023-03-24T15:09:51;15.10;94.10
26270;DHT22;15937;50.612;6.656;2023-03-24T15:13:53;14.80;95.00
26270;DHT22;15937;50.612;6.656;2023-03-24T15:17:55;14.50;95.70
26270;DHT22;15937;50.612;6.656;2023-03-24T15:22:01;14.80;97.00
26270;DHT22;15937;50.612;6.656;2023-03-24T15:26:10;14.90;95.90
26270;DHT22;15937;50.612;6.656;2023-03-24T15:30:12;14.90;96.30
26270;DHT22;15937;50.612;6.656;2023-03-24T15:34:35;15.00;96.50
26270;DHT22;15937;50.612;6.656;2023-03-24T15:38:37;15.00;94.60
26270;DHT22;15937;50.612;6.656;2023-03-24T15:42:45;14.60;94.10
26270;DHT22;15937;50.612;6.656;2023-03-24T15:46:48;14.90;94.40
26270;DHT22;15937;50.612;6.656;2023-03-24T15:50:55;15.10;94.10
26270;DHT22;15937;50.612;6.656;2023-03-24T15:54:58;15.30;94.40
26270;DHT22;15937;50.612;6.656;2023-03-24T15:59:34;15.00;94.50
26270;DHT22;15937;50.612;6.656;2023-03-24T16:03:29;15.30;93.50
26270;DHT22;15937;50.612;6.656;2023-03-24T16:07:33;15.70;92.50
26270;DHT22;15937;50.612;6.656;2023-03-24T16:11:39;15.20;93.70
26270;DHT22;15937;50.612;6.656;2023-03-24T16:19:58;14.60;93.10
26270;DHT22;15937;50.612;6.656;2023-03-24T16:24:03;14.70;93.70
26270;DHT22;15937;50.612;6.656;2023-03-24T16:28:07;14.60;93.50
26270;DHT22;15937;50.612;6.656;2023-03-24T16:32:09;14.50;93.90
26270;DHT22;15937;50.612;6.656;2023-03-24T16:36:11;14.10;94.90
26270;DHT22;15937;50.612;6.656;2023-03-24T16:40:47;13.70;99.90
26270;DHT22;15937;50.612;6.656;2023-03-24T16:44:41;12.60;99.90
26270;DHT22;15937;50.612;6.656;2023-03-24T16:48:43;11.90;99.90
26270;DHT22;15937;50.612;6.656;2023-03-24T16:52:45;11.90;99.90
26270;DHT22;15937;50.612;6.656;2023-03-24T16:56:46;11.80;99.90
26270;DHT22;15937;50.612;6.656;2023-03-24T17:00:48;12.00;99.90
26270;DHT22;15937;50.612;6.656;2023-03-24T17:04:51;11.60;99.90
26270;DHT22;15937;50.612;6.656;2023-03-24T17:08:53;11.40;99.90
26270;DHT22;15937;50.612;6.656;2023-03-24T17:12:55;11.40;99.90
26270;DHT22;15937;50.612;6.656;2023-03-24T17:16:57;11.40;99.90
26270;DHT22;15937;50.612;6.656;2023-03-24T17:21:00;11.60;99.90
26270;DHT22;15937;50.612;6.656;2023-03-24T17:25:01;11.50;99.90
26270;DHT22;15937;50.612;6.656;2023-03-24T17:29:05;10.80;99.90
26270;DHT22;15937;50.612;6.656;2023-03-24T17:33:09;10.80;99.90
26270;DHT22;15937;50.612;6.656;2023-03-24T17:37:11;10.90;99.90
26270;DHT22;15937;50.612;6.656;2023-03-24T17:41:13;10.90;99.90
26270;DHT22;15937;50.612;6.656;2023-03-24T17:45:16;10.70;99.90
26270;DHT22;15937;50.612;6.656;2023-03-24T17:49:18;11.10;99.90
26270;DHT22;15937;50.612;6.656;2023-03-24T17:53:20;11.00;99.90
26270;DHT22;15937;50.612;6.656;2023-03-24T17:57:26;11.10;99.90
26270;DHT22;15937;50.612;6.656;2023-03-24T18:01:28;11.00;99.90
26270;DHT22;15937;50.612;6.656;2023-03-24T18:05:30;11.10;99.90
26270;DHT22;15937;50.612;6.656;2023-03-24T18:09:32;11.00;99.90
26270;DHT22;15937;50.612;6.656;2023-03-24T18:13:35;11.10;99.90
26270;DHT22;15937;50.612;6.656;2023-03-24T18:17:37;11.10;99.90
26270;DHT22;15937;50.612;6.656;2023-03-24T18:21:39;10.90;99.90
26270;DHT22;15937;50.612;6.656;2023-03-24T18:25:40;10.90;99.90
26270;DHT22;15937;50.612;6.656;2023-03-24T18:29:42;10.90;99.90
26270;DHT22;15937;50.612;6.656;2023-03-24T18:33:45;10.90;99.90
26270;DHT22;15937;50.612;6.656;2023-03-24T18:37:47;11.00;99.90
26270;DHT22;15937;50.612;6.656;2023-03-24T18:41:49;11.00;99.90
26270;DHT22;15937;50.612;6.656;2023-03-24T18:45:53;10.90;99.90
26270;DHT22;15937;50.612;6.656;2023-03-24T18:49:55;11.00;99.90
26270;DHT22;15937;50.612;6.656;2023-03-24T18:53:57;11.00;99.90
26270;DHT22;15937;50.612;6.656;2023-03-24T18:57:59;10.90;99.90
26270;DHT22;15937;50.612;6.656;2023-03-24T19:02:00;10.90;99.90
26270;DHT22;15937;50.612;6.656;2023-03-24T19:06:02;10.90;99.90
26270;DHT22;15937;50.612;6.656;2023-03-24T19:10:07;10.80;99.90
26270;DHT22;15937;50.612;6.656;2023-03-24T19:14:09;10.80;99.90
26270;DHT22;15937;50.612;6.656;2023-03-24T19:18:10;10.60;99.90
26270;DHT22;15937;50.612;6.656;2023-03-24T19:22:13;10.50;99.90
26270;DHT22;15937;50.612;6.656;2023-03-24T19:26:21;10.60;99.90
26270;DHT22;15937;50.612;6.656;2023-03-24T19:30:23;10.60;99.90
26270;DHT22;15937;50.612;6.656;2023-03-24T19:34:25;10.50;99.90
26270;DHT22;15937;50.612;6.656;2023-03-24T19:38:27;10.50;99.90
26270;DHT22;15937;50.612;6.656;2023-03-24T19:42:34;10.40;99.90
26270;DHT22;15937;50.612;6.656;2023-03-24T19:46:35;10.40;99.90
26270;DHT22;15937;50.612;6.656;2023-03-24T19:50:37;10.30;99.90
26270;DHT22;15937;50.612;6.656;2023-03-24T19:54:39;10.30;99.90
26270;DHT22;15937;50.612;6.656;2023-03-24T19:58:41;10.20;99.90
26270;DHT22;15937;50.612;6.656;2023-03-24T20:02:43;10.10;99.90
26270;DHT22;15937;50.612;6.656;2023-03-24T20:06:45;10.10;99.90
26270;DHT22;15937;50.612;6.656;2023-03-24T20:10:46;10.00;99.90
26270;DHT22;15937;50.612;6.656;2023-03-24T20:14:48;10.00;99.90
26270;DHT22;15937;50.612;6.656;2023-03-24T20:18:53;9.90;99.90
26270;DHT22;15937;50.612;6.656;2023-03-24T20:22:55;9.80;99.90
26270;DHT22;15937;50.612;6.656;2023-03-24T20:26:57;9.80;99.90
26270;DHT22;15937;50.612;6.656;2023-03-24T20:31:02;9.70;99.90
26270;DHT22;15937;50.612;6.656;2023-03-24T20:35:04;9.70;99.90
26270;DHT22;15937;50.612;6.656;2023-03-24T20:39:06;9.70;99.90
26270;DHT22;15937;50.612;6.656;2023-03-24T20:43:08;9.70;99.90
26270;DHT22;15937;50.612;6.656;2023-03-24T20:47:10;9.70;99.90
26270;DHT22;15937;50.612;6.656;2023-03-24T20:51:11;9.60;99.90
26270;DHT22;15937;50.612;6.656;2023-03-24T20:55:13;9.50;99.90
26270;DHT22;15937;50.612;6.656;2023-03-24T20:59:15;9.50;99.90
26270;DHT22;15937;50.612;6.656;2023-03-24T21:03:17;9.40;99.90
26270;DHT22;15937;50.612;6.656;2023-03-24T21:07:19;9.40;99.90
26270;DHT22;15937;50.612;6.656;2023-03-24T21:11:21;9.40;99.90
26270;DHT22;15937;50.612;6.656;2023-03-24T21:15:23;9.30;99.90
26270;DHT22;15937;50.612;6.656;2023-03-24T21:19:28;9.20;99.90
26270;DHT22;15937;50.612;6.656;2023-03-24T21:23:30;9.20;99.90
26270;DHT22;15937;50.612;6.656;2023-03-24T21:27:39;9.10;99.90
26270;DHT22;15937;50.612;6.656;2023-03-24T21:31:41;9.10;99.90
26270;DHT22;15937;50.612;6.656;2023-03-24T21:35:46;9.10;99.90
26270;DHT22;15937;50.612;6.656;2023-03-24T21:39:48;9.00;99.90
26270;DHT22;15937;50.612;6.656;2023-03-24T21:43:53;9.10;99.90
26270;DHT22;15937;50.612;6.656;2023-03-24T21:47:57;9.00;99.90
26270;DHT22;15937;50.612;6.656;2023-03-24T21:51:59;9.10;99.90
26270;DHT22;15937;50.612;6.656;2023-03-24T21:56:04;9.00;99.90
26270;DHT22;15937;50.612;6.656;2023-03-24T22:00:06;9.00;99.90
26270;DHT22;15937;50.612;6.656;2023-03-24T22:04:15;9.10;99.90
26270;DHT22;15937;50.612;6.656;2023-03-24T22:08:18;9.00;99.90
26270;DHT22;15937;50.612;6.656;2023-03-24T22:12:23;8.90;99.90
26270;DHT22;15937;50.612;6.656;2023-03-24T22:16:25;8.90;99.90
26270;DHT22;15937;50.612;6.656;2023-03-24T22:20:31;8.80;99.90
26270;DHT22;15937;50.612;6.656;2023-03-24T22:24:33;8.70;99.90
26270;DHT22;15937;50.612;6.656;2023-03-24T22:28:36;8.60;99.90
26270;DHT22;15937;50.612;6.656;2023-03-24T22:32:38;8.60;99.90
26270;DHT22;15937;50.612;6.656;2023-03-24T22:36:41;8.60;99.90
26270;DHT22;15937;50.612;6.656;2023-03-24T22:40:43;8.50;99.90
26270;DHT22;15937;50.612;6.656;2023-03-24T22:44:45;8.50;99.90
26270;DHT22;15937;50.612;6.656;2023-03-24T22:48:47;8.50;99.90
26270;DHT22;15937;50.612;6.656;2023-03-24T22:52:49;8.50;99.90
26270;DHT22;15937;50.612;6.656;2023-03-24T22:56:51;8.50;99.90
26270;DHT22;15937;50.612;6.656;2023-03-24T23:00:53;8.50;99.90
26270;DHT22;15937;50.612;6.656;2023-03-24T23:04:56;8.50;99.90
26270;DHT22;15937;50.612;6.656;2023-03-24T23:08:57;8.50;99.90
26270;DHT22;15937;50.612;6.656;2023-03-24T23:13:02;8.40;99.90
26270;DHT22;15937;50.612;6.656;2023-03-24T23:17:04;8.40;99.90
26270;DHT22;15937;50.612;6.656;2023-03-24T23:21:10;8.40;99.90
26270;DHT22;15937;50.612;6.656;2023-03-24T23:25:12;8.50;99.90
26270;DHT22;15937;50.612;6.656;2023-03-24T23:29:14;8.50;99.90
26270;DHT22;15937;50.612;6.656;2023-03-24T23:33:16;8.50;99.90
26270;DHT22;15937;50.612;6.656;2023-03-24T23:37:18;8.60;99.90
26270;DHT22;15937;50.612;6.656;2023-03-24T23:41:20;8.50;99.90
26270;DHT22;15937;50.612;6.656;2023-03-24T23:45:21;8.60;99.90
26270;DHT22;15937;50.612;6.656;2023-03-24T23:49:23;8.60;99.90
26270;DHT22;15937;50.612;6.656;2023-03-24T23:53:25;8.60;99.90
26270;DHT22;15937;50.612;6.656;2023-03-24T23:57:27;8.60;99.90
